createdAt,value
2019-03-29T00:00:43.710Z,0.00
2019-03-29T00:01:43.656Z,0.00
2019-03-29T00:02:43.606Z,0.00
2019-03-29T00:03:43.548Z,0.00
2019-03-29T00:04:43.529Z,0.00
2019-03-29T00:05:44.218Z,0.00
2019-03-29T00:06:43.392Z,0.00
2019-03-29T00:07:43.336Z,0.00
2019-03-29T00:08:43.330Z,0.00
2019-03-29T00:09:43.233Z,0.00
2019-03-29T00:10:43.177Z,0.00
2019-03-29T00:11:43.120Z,0.00
2019-03-29T00:12:43.071Z,0.00
2019-03-29T00:13:43.066Z,0.00
2019-03-29T00:14:42.961Z,0.00
2019-03-29T00:15:42.912Z,0.00
2019-03-29T00:16:42.853Z,0.00
2019-03-29T00:17:43.994Z,0.00
2019-03-29T00:18:42.793Z,0.00
2019-03-29T00:19:42.696Z,0.00
2019-03-29T00:20:42.643Z,0.00
2019-03-29T00:21:42.590Z,0.00
2019-03-29T00:22:42.539Z,0.00
2019-03-29T00:23:42.535Z,0.00
2019-03-29T00:24:42.435Z,0.00
2019-03-29T00:25:42.378Z,0.00
2019-03-29T00:26:42.322Z,0.00
2019-03-29T00:27:42.269Z,0.00
2019-03-29T00:28:42.336Z,0.00
2019-03-29T00:29:42.170Z,0.00
2019-03-29T00:30:42.111Z,0.00
2019-03-29T00:31:42.055Z,0.00
2019-03-29T00:32:42.010Z,0.00
2019-03-29T00:33:41.992Z,0.00
2019-03-29T00:34:42.078Z,0.00
2019-03-29T00:35:41.845Z,0.00
2019-03-29T00:36:41.788Z,0.00
2019-03-29T00:37:52.935Z,0.00
2019-03-29T00:38:41.806Z,0.00
2019-03-29T00:39:41.626Z,0.00
2019-03-29T00:40:41.575Z,0.00
2019-03-29T00:41:41.523Z,0.00
2019-03-29T00:42:41.469Z,0.00
2019-03-29T00:43:41.452Z,0.00
2019-03-29T00:44:41.468Z,0.00
2019-03-29T00:45:41.308Z,0.00
2019-03-29T00:46:41.254Z,0.00
2019-03-29T00:47:41.201Z,0.00
2019-03-29T00:48:41.181Z,0.00
2019-03-29T00:49:41.229Z,0.00
2019-03-29T00:50:41.050Z,0.00
2019-03-29T00:51:40.987Z,0.00
2019-03-29T00:52:40.936Z,0.00
2019-03-29T00:53:40.912Z,0.00
2019-03-29T00:54:40.826Z,0.00
2019-03-29T00:55:40.776Z,0.00
2019-03-29T00:56:40.753Z,0.00
2019-03-29T00:57:40.667Z,0.00
2019-03-29T00:58:40.618Z,0.00
2019-03-29T00:59:40.847Z,0.00
2019-03-29T01:00:40.540Z,0.00
2019-03-29T01:01:40.454Z,0.00
2019-03-29T01:02:40.449Z,0.00
2019-03-29T01:03:40.349Z,0.00
2019-03-29T01:04:40.292Z,0.00
2019-03-29T01:05:40.271Z,0.00
2019-03-29T01:06:40.188Z,0.00
2019-03-29T01:07:40.133Z,0.00
2019-03-29T01:08:40.081Z,0.00
2019-03-29T01:09:40.036Z,0.00
2019-03-29T01:10:40.004Z,0.00
2019-03-29T01:11:40.901Z,0.00
2019-03-29T01:12:39.869Z,0.00
2019-03-29T01:13:39.814Z,0.00
2019-03-29T01:14:39.765Z,0.00
2019-03-29T01:15:39.703Z,0.00
2019-03-29T01:16:39.692Z,0.00
2019-03-29T01:17:39.598Z,0.00
2019-03-29T01:18:39.546Z,0.00
2019-03-29T01:19:39.493Z,0.00
2019-03-29T01:20:39.436Z,0.00
2019-03-29T01:21:39.964Z,0.00
2019-03-29T01:22:39.333Z,0.00
2019-03-29T01:23:39.278Z,0.00
2019-03-29T01:24:39.226Z,0.00
2019-03-29T01:25:39.168Z,0.00
2019-03-29T01:26:39.164Z,0.00
2019-03-29T01:27:39.070Z,0.00
2019-03-29T01:28:39.006Z,0.00
2019-03-29T01:29:38.957Z,0.00
2019-03-29T01:30:38.903Z,0.00
2019-03-29T01:31:38.886Z,0.00
2019-03-29T01:32:38.795Z,0.00
2019-03-29T01:33:38.741Z,0.00
2019-03-29T01:34:38.720Z,0.00
2019-03-29T01:35:38.634Z,0.00
2019-03-29T01:36:38.599Z,0.00
2019-03-29T01:37:38.526Z,0.00
2019-03-29T01:38:38.476Z,0.00
2019-03-29T01:39:38.451Z,0.00
2019-03-29T01:40:38.367Z,0.00
2019-03-29T01:41:38.312Z,0.00
2019-03-29T01:42:38.261Z,0.00
2019-03-29T01:43:38.238Z,0.00
2019-03-29T01:44:38.164Z,0.00
2019-03-29T01:45:38.182Z,0.00
2019-03-29T01:46:38.320Z,0.00
2019-03-29T01:47:38.024Z,0.00
2019-03-29T01:48:37.969Z,0.00
2019-03-29T01:49:37.886Z,0.00
2019-03-29T01:50:37.830Z,0.00
2019-03-29T01:51:37.773Z,0.00
2019-03-29T01:52:37.727Z,0.00
2019-03-29T01:53:38.011Z,0.00
2019-03-29T01:54:37.618Z,0.00
2019-03-29T01:55:37.560Z,0.00
2019-03-29T01:56:37.507Z,0.00
2019-03-29T01:57:37.455Z,0.00
2019-03-29T01:58:37.432Z,0.00
2019-03-29T01:59:37.351Z,0.00
2019-03-29T02:00:37.331Z,0.00
2019-03-29T02:01:37.276Z,0.00
2019-03-29T02:02:37.187Z,0.00
2019-03-29T02:03:37.133Z,0.00
2019-03-29T02:04:37.079Z,0.00
2019-03-29T02:05:37.027Z,0.00
2019-03-29T02:06:37.002Z,0.00
2019-03-29T02:07:38.001Z,0.00
2019-03-29T02:08:37.857Z,0.00
2019-03-29T02:09:36.809Z,0.00
2019-03-29T02:10:36.768Z,0.00
2019-03-29T02:11:36.700Z,0.00
2019-03-29T02:12:36.675Z,0.00
2019-03-29T02:13:36.601Z,0.00
2019-03-29T02:14:36.542Z,0.00
2019-03-29T02:15:37.201Z,0.00
2019-03-29T02:16:36.438Z,0.00
2019-03-29T02:17:36.407Z,0.00
2019-03-29T02:18:36.331Z,0.00
2019-03-29T02:19:36.273Z,0.00
2019-03-29T02:20:36.221Z,0.00
2019-03-29T02:21:36.167Z,0.00
2019-03-29T02:22:36.965Z,0.00
2019-03-29T02:23:36.059Z,0.00
2019-03-29T02:24:36.036Z,0.00
2019-03-29T02:25:35.949Z,0.00
2019-03-29T02:26:35.898Z,0.00
2019-03-29T02:27:35.851Z,0.00
2019-03-29T02:28:35.820Z,0.00
2019-03-29T02:29:36.242Z,0.00
2019-03-29T02:30:35.718Z,0.00
2019-03-29T02:31:35.636Z,0.00
2019-03-29T02:32:35.577Z,0.00
2019-03-29T02:33:35.553Z,0.00
2019-03-29T02:34:35.479Z,0.00
2019-03-29T02:35:35.416Z,0.00
2019-03-29T02:36:35.363Z,0.00
2019-03-29T02:37:35.310Z,0.00
2019-03-29T02:38:47.410Z,0.00
2019-03-29T02:39:35.215Z,0.00
2019-03-29T02:40:35.248Z,0.00
2019-03-29T02:41:35.158Z,0.00
2019-03-29T02:42:35.037Z,0.00
2019-03-29T02:43:34.991Z,0.00
2019-03-29T02:44:35.311Z,0.00
2019-03-29T02:45:34.913Z,0.00
2019-03-29T02:46:34.822Z,0.00
2019-03-29T02:47:34.779Z,0.00
2019-03-29T02:48:34.715Z,0.00
2019-03-29T02:49:34.693Z,0.00
2019-03-29T02:50:34.607Z,0.00
2019-03-29T02:51:34.555Z,0.00
2019-03-29T02:52:34.505Z,0.00
2019-03-29T02:53:34.447Z,0.00
2019-03-29T02:54:34.428Z,0.00
2019-03-29T02:55:34.363Z,0.00
2019-03-29T02:56:34.285Z,0.00
2019-03-29T02:57:34.234Z,0.00
2019-03-29T02:58:34.181Z,0.00
2019-03-29T02:59:34.128Z,0.00
2019-03-29T03:00:34.092Z,0.00
2019-03-29T03:01:34.022Z,0.00
2019-03-29T03:02:33.962Z,0.00
2019-03-29T03:03:33.913Z,0.00
2019-03-29T03:04:33.855Z,0.00
2019-03-29T03:05:33.857Z,0.00
2019-03-29T03:06:33.755Z,0.00
2019-03-29T03:07:33.693Z,0.00
2019-03-29T03:08:33.667Z,0.00
2019-03-29T03:09:33.588Z,0.00
2019-03-29T03:10:33.681Z,0.00
2019-03-29T03:11:33.478Z,0.00
2019-03-29T03:12:33.432Z,0.00
2019-03-29T03:13:33.372Z,0.00
2019-03-29T03:14:33.324Z,0.00
2019-03-29T03:15:33.297Z,0.00
2019-03-29T03:16:33.218Z,0.00
2019-03-29T03:17:33.158Z,0.00
2019-03-29T03:18:33.104Z,0.00
2019-03-29T03:19:33.050Z,0.00
2019-03-29T03:20:33.027Z,0.00
2019-03-29T03:21:32.971Z,0.00
2019-03-29T03:22:32.889Z,0.00
2019-03-29T03:23:32.840Z,0.00
2019-03-29T03:24:32.781Z,0.00
2019-03-29T03:25:32.727Z,0.00
2019-03-29T03:26:32.705Z,0.00
2019-03-29T03:27:32.670Z,0.00
2019-03-29T03:28:32.562Z,0.00
2019-03-29T03:29:32.509Z,0.00
2019-03-29T03:30:32.457Z,0.00
2019-03-29T03:31:32.403Z,0.00
2019-03-29T03:32:32.376Z,0.00
2019-03-29T03:33:32.328Z,0.00
2019-03-29T03:34:32.248Z,0.00
2019-03-29T03:35:32.189Z,0.00
2019-03-29T03:36:32.136Z,0.00
2019-03-29T03:37:32.080Z,0.00
2019-03-29T03:38:32.062Z,0.00
2019-03-29T03:39:32.767Z,0.00
2019-03-29T03:40:31.957Z,0.00
2019-03-29T03:41:31.866Z,0.00
2019-03-29T03:42:31.813Z,0.00
2019-03-29T03:43:31.759Z,0.00
2019-03-29T03:44:31.706Z,0.00
2019-03-29T03:45:31.685Z,0.00
2019-03-29T03:46:31.597Z,0.00
2019-03-29T03:47:31.543Z,0.00
2019-03-29T03:48:31.489Z,0.00
2019-03-29T03:49:31.441Z,0.00
2019-03-29T03:50:31.422Z,0.00
2019-03-29T03:51:31.328Z,0.00
2019-03-29T03:52:31.274Z,0.00
2019-03-29T03:53:31.255Z,0.00
2019-03-29T03:54:31.168Z,0.00
2019-03-29T03:55:31.120Z,0.00
2019-03-29T03:56:31.058Z,0.00
2019-03-29T03:57:31.029Z,0.00
2019-03-29T03:58:30.953Z,0.00
2019-03-29T03:59:30.895Z,0.00
2019-03-29T04:00:30.842Z,0.00
2019-03-29T04:01:30.826Z,0.00
2019-03-29T04:02:30.734Z,0.00
2019-03-29T04:03:30.680Z,0.00
2019-03-29T04:04:30.627Z,0.00
2019-03-29T04:05:30.602Z,0.00
2019-03-29T04:06:30.525Z,0.00
2019-03-29T04:07:30.468Z,0.00
2019-03-29T04:08:30.412Z,0.00
2019-03-29T04:09:48.018Z,0.00
2019-03-29T04:10:30.314Z,0.00
2019-03-29T04:11:30.250Z,0.00
2019-03-29T04:12:30.193Z,0.00
2019-03-29T04:13:30.143Z,0.00
2019-03-29T04:14:30.124Z,0.00
2019-03-29T04:15:30.036Z,0.00
2019-03-29T04:16:30.002Z,0.00
2019-03-29T04:17:29.923Z,0.00
2019-03-29T04:18:29.918Z,0.00
2019-03-29T04:19:29.817Z,0.00
2019-03-29T04:20:29.765Z,0.00
2019-03-29T04:21:29.709Z,0.00
2019-03-29T04:22:29.656Z,0.00
2019-03-29T04:23:29.633Z,0.00
2019-03-29T04:24:29.546Z,0.00
2019-03-29T04:25:29.519Z,0.00
2019-03-29T04:26:29.438Z,0.00
2019-03-29T04:27:29.383Z,0.00
2019-03-29T04:28:29.366Z,0.00
2019-03-29T04:29:29.280Z,0.00
2019-03-29T04:30:29.222Z,0.00
2019-03-29T04:31:29.170Z,0.00
2019-03-29T04:32:29.147Z,0.00
2019-03-29T04:33:29.103Z,0.00
2019-03-29T04:34:29.009Z,0.00
2019-03-29T04:35:28.954Z,0.00
2019-03-29T04:36:28.898Z,0.00
2019-03-29T04:37:28.849Z,0.00
2019-03-29T04:38:28.834Z,0.00
2019-03-29T04:39:28.733Z,0.00
2019-03-29T04:40:28.686Z,0.00
2019-03-29T04:41:28.639Z,4.00
2019-03-29T04:42:28.572Z,0.00
2019-03-29T04:43:28.552Z,0.00
2019-03-29T04:44:28.467Z,4.00
2019-03-29T04:45:28.417Z,4.00
2019-03-29T04:46:28.366Z,4.00
2019-03-29T04:47:28.304Z,4.00
2019-03-29T04:48:28.276Z,4.00
2019-03-29T04:49:28.194Z,4.00
2019-03-29T04:50:28.173Z,8.00
2019-03-29T04:51:28.088Z,8.00
2019-03-29T04:52:28.029Z,8.00
2019-03-29T04:53:27.978Z,8.00
2019-03-29T04:54:27.954Z,8.00
2019-03-29T04:55:27.872Z,12.00
2019-03-29T04:56:27.815Z,12.00
2019-03-29T04:57:27.764Z,16.00
2019-03-29T04:58:27.709Z,16.00
2019-03-29T04:59:27.689Z,16.00
2019-03-29T05:00:27.631Z,24.00
2019-03-29T05:01:27.588Z,24.00
2019-03-29T05:02:27.493Z,28.00
2019-03-29T05:03:27.440Z,32.00
2019-03-29T05:04:27.389Z,32.00
2019-03-29T05:05:27.330Z,36.00
2019-03-29T05:06:27.308Z,36.00
2019-03-29T05:07:27.219Z,40.00
2019-03-29T05:08:27.171Z,44.00
2019-03-29T05:09:27.114Z,48.00
2019-03-29T05:10:27.059Z,52.00
2019-03-29T05:11:27.038Z,56.00
2019-03-29T05:12:26.950Z,64.00
2019-03-29T05:13:26.896Z,72.00
2019-03-29T05:14:26.842Z,80.00
2019-03-29T05:15:26.787Z,92.00
2019-03-29T05:16:26.763Z,100.00
2019-03-29T05:17:26.683Z,112.00
2019-03-29T05:18:26.623Z,124.00
2019-03-29T05:19:26.569Z,136.00
2019-03-29T05:20:26.517Z,152.00
2019-03-29T05:21:26.503Z,168.00
2019-03-29T05:22:26.411Z,188.00
2019-03-29T05:23:26.355Z,208.00
2019-03-29T05:24:26.301Z,228.00
2019-03-29T05:25:26.246Z,244.00
2019-03-29T05:26:26.229Z,264.00
2019-03-29T05:27:26.155Z,284.00
2019-03-29T05:28:26.112Z,304.00
2019-03-29T05:29:26.032Z,328.00
2019-03-29T05:30:25.977Z,360.00
2019-03-29T05:31:25.921Z,400.00
2019-03-29T05:32:25.895Z,460.00
2019-03-29T05:33:25.817Z,516.00
2019-03-29T05:34:25.796Z,584.00
2019-03-29T05:35:25.709Z,636.00
2019-03-29T05:36:25.652Z,684.00
2019-03-29T05:37:25.592Z,712.00
2019-03-29T05:38:25.539Z,736.00
2019-03-29T05:39:25.516Z,732.00
2019-03-29T05:40:34.793Z,756.00
2019-03-29T05:41:25.384Z,804.00
2019-03-29T05:42:25.330Z,864.00
2019-03-29T05:43:25.306Z,928.00
2019-03-29T05:44:25.213Z,984.00
2019-03-29T05:45:25.160Z,1040.00
2019-03-29T05:46:25.110Z,1140.00
2019-03-29T05:47:25.049Z,1248.00
2019-03-29T05:48:25.031Z,1336.00
2019-03-29T05:49:24.940Z,1372.00
2019-03-29T05:50:24.892Z,1396.00
2019-03-29T05:51:24.835Z,1452.00
2019-03-29T05:52:24.811Z,1528.00
2019-03-29T05:53:24.725Z,1600.00
2019-03-29T05:54:24.701Z,1628.00
2019-03-29T05:55:32.547Z,1696.00
2019-03-29T05:56:24.561Z,1768.00
2019-03-29T05:57:24.509Z,1892.00
2019-03-29T05:58:24.486Z,2096.00
2019-03-29T05:59:24.546Z,1976.00
2019-03-29T06:00:24.351Z,1872.00
2019-03-29T06:01:24.358Z,1888.00
2019-03-29T06:02:24.242Z,1896.00
2019-03-29T06:03:24.191Z,1916.00
2019-03-29T06:04:24.160Z,1944.00
2019-03-29T06:05:24.080Z,1976.00
2019-03-29T06:06:24.023Z,2580.00
2019-03-29T06:07:23.967Z,2756.00
2019-03-29T06:08:23.918Z,2280.00
2019-03-29T06:09:23.897Z,2516.00
2019-03-29T06:10:23.808Z,3224.00
2019-03-29T06:11:23.752Z,4368.00
2019-03-29T06:12:23.739Z,3836.00
2019-03-29T06:13:23.643Z,3528.00
2019-03-29T06:14:23.593Z,3516.00
2019-03-29T06:15:23.536Z,3228.00
2019-03-29T06:16:23.481Z,2540.00
2019-03-29T06:17:23.458Z,2588.00
2019-03-29T06:18:23.377Z,2660.00
2019-03-29T06:19:23.321Z,2772.00
2019-03-29T06:20:23.266Z,2888.00
2019-03-29T06:21:23.211Z,2912.00
2019-03-29T06:22:23.189Z,2972.00
2019-03-29T06:23:23.145Z,3052.00
2019-03-29T06:24:23.051Z,3168.00
2019-03-29T06:25:22.997Z,3288.00
2019-03-29T06:26:22.961Z,3392.00
2019-03-29T06:27:22.897Z,3472.00
2019-03-29T06:28:22.867Z,3528.00
2019-03-29T06:29:22.779Z,3580.00
2019-03-29T06:30:22.730Z,3612.00
2019-03-29T06:31:22.672Z,3776.00
2019-03-29T06:32:22.654Z,3896.00
2019-03-29T06:33:22.568Z,5396.00
2019-03-29T06:34:22.548Z,6680.00
2019-03-29T06:35:22.457Z,6976.00
2019-03-29T06:36:22.413Z,8840.00
2019-03-29T06:37:22.381Z,9304.00
2019-03-29T06:38:22.300Z,6352.00
2019-03-29T06:39:22.248Z,4388.00
2019-03-29T06:40:22.196Z,4040.00
2019-03-29T06:41:22.170Z,4468.00
2019-03-29T06:42:22.088Z,3444.00
2019-03-29T06:43:22.035Z,5016.00
2019-03-29T06:44:22.010Z,3856.00
2019-03-29T06:45:21.929Z,4760.00
2019-03-29T06:46:21.873Z,5800.00
2019-03-29T06:47:21.819Z,4700.00
2019-03-29T06:48:21.765Z,5324.00
2019-03-29T06:49:21.758Z,6164.00
2019-03-29T06:50:21.658Z,5352.00
2019-03-29T06:51:21.611Z,5796.00
2019-03-29T06:52:21.561Z,5860.00
2019-03-29T06:53:21.498Z,5160.00
2019-03-29T06:54:21.484Z,4776.00
2019-03-29T06:55:21.428Z,4892.00
2019-03-29T06:56:21.341Z,5280.00
2019-03-29T06:57:21.316Z,5120.00
2019-03-29T06:58:21.242Z,5120.00
2019-03-29T06:59:21.180Z,5060.00
2019-03-29T07:00:21.124Z,5324.00
2019-03-29T07:01:21.072Z,6744.00
2019-03-29T07:02:21.052Z,6852.00
2019-03-29T07:03:20.974Z,7948.00
2019-03-29T07:04:20.921Z,7772.00
2019-03-29T07:05:20.864Z,7932.00
2019-03-29T07:06:20.807Z,8308.00
2019-03-29T07:07:20.796Z,7452.00
2019-03-29T07:08:20.704Z,5972.00
2019-03-29T07:09:20.653Z,6512.00
2019-03-29T07:10:20.599Z,8812.00
2019-03-29T07:11:20.544Z,10228.00
2019-03-29T07:12:20.563Z,6884.00
2019-03-29T07:13:20.438Z,7552.00
2019-03-29T07:14:20.386Z,11476.00
2019-03-29T07:15:20.331Z,10060.00
2019-03-29T07:16:20.279Z,9156.00
2019-03-29T07:17:20.261Z,7784.00
2019-03-29T07:18:20.213Z,6224.00
2019-03-29T07:19:20.129Z,7308.00
2019-03-29T07:20:20.071Z,6616.00
2019-03-29T07:21:21.806Z,8752.00
2019-03-29T07:22:19.972Z,12072.00
2019-03-29T07:23:19.944Z,8544.00
2019-03-29T07:24:19.861Z,8968.00
2019-03-29T07:25:19.807Z,9348.00
2019-03-29T07:26:19.759Z,9548.00
2019-03-29T07:27:19.701Z,10048.00
2019-03-29T07:28:19.681Z,11632.00
2019-03-29T07:29:19.595Z,11812.00
2019-03-29T07:30:19.543Z,11804.00
2019-03-29T07:31:19.494Z,13852.00
2019-03-29T07:32:19.441Z,18496.00
2019-03-29T07:33:19.429Z,25248.00
2019-03-29T07:34:19.338Z,20608.00
2019-03-29T07:35:19.283Z,16064.00
2019-03-29T07:36:19.233Z,13008.00
2019-03-29T07:37:19.185Z,11476.00
2019-03-29T07:38:19.160Z,11988.00
2019-03-29T07:39:19.076Z,14128.00
2019-03-29T07:40:19.031Z,14200.00
2019-03-29T07:41:31.192Z,14744.00
2019-03-29T07:42:18.927Z,15712.00
2019-03-29T07:43:18.910Z,15396.00
2019-03-29T07:44:18.826Z,13960.00
2019-03-29T07:45:18.769Z,10216.00
2019-03-29T07:46:18.720Z,22496.00
2019-03-29T07:47:18.670Z,22848.00
2019-03-29T07:48:18.656Z,19712.00
2019-03-29T07:49:18.564Z,18528.00
2019-03-29T07:50:19.186Z,22112.00
2019-03-29T07:51:18.463Z,23936.00
2019-03-29T07:52:18.412Z,25792.00
2019-03-29T07:53:18.393Z,13796.00
2019-03-29T07:54:18.312Z,32448.00
2019-03-29T07:55:18.266Z,44384.00
2019-03-29T07:56:18.211Z,53120.00
2019-03-29T07:57:18.166Z,31872.00
2019-03-29T07:58:18.141Z,20832.00
2019-03-29T07:59:18.093Z,35456.00
2019-03-29T08:00:20.377Z,43008.00
2019-03-29T08:01:17.968Z,42944.00
2019-03-29T08:02:17.949Z,20384.00
2019-03-29T08:03:21.009Z,7108.00
2019-03-29T08:04:21.347Z,7896.00
2019-03-29T08:05:18.101Z,5924.00
2019-03-29T08:06:17.718Z,2832.00
2019-03-29T08:07:27.179Z,2260.00
2019-03-29T08:08:23.903Z,2476.00
2019-03-29T08:09:22.503Z,2332.00
2019-03-29T08:10:24.913Z,2328.00
2019-03-29T08:11:25.928Z,2336.00
2019-03-29T08:12:17.472Z,2300.00
2019-03-29T08:13:17.391Z,2268.00
2019-03-29T08:14:17.341Z,2160.00
2019-03-29T08:15:17.322Z,2120.00
2019-03-29T08:16:17.229Z,2144.00
2019-03-29T08:17:17.179Z,2200.00
2019-03-29T08:18:17.132Z,2292.00
2019-03-29T08:19:17.080Z,2440.00
2019-03-29T08:20:38.249Z,2088.00
2019-03-29T08:21:16.988Z,1804.00
2019-03-29T08:22:16.965Z,1840.00
2019-03-29T08:23:16.885Z,1872.00
2019-03-29T08:24:16.835Z,1800.00
2019-03-29T08:25:16.784Z,1760.00
2019-03-29T08:26:16.737Z,1772.00
2019-03-29T08:27:16.721Z,1816.00
2019-03-29T08:28:16.631Z,1880.00
2019-03-29T08:29:16.582Z,1956.00
2019-03-29T08:30:16.530Z,2040.00
2019-03-29T08:31:16.492Z,2204.00
2019-03-29T08:32:16.466Z,2272.00
2019-03-29T08:33:16.380Z,2268.00
2019-03-29T08:34:16.361Z,2352.00
2019-03-29T08:35:16.281Z,2560.00
2019-03-29T08:36:16.233Z,2708.00
2019-03-29T08:37:16.183Z,2840.00
2019-03-29T08:38:16.127Z,3152.00
2019-03-29T08:39:27.344Z,3360.00
2019-03-29T08:40:16.057Z,3304.00
2019-03-29T08:41:15.976Z,2988.00
2019-03-29T08:42:18.566Z,2868.00
2019-03-29T08:43:15.962Z,3016.00
2019-03-29T08:44:15.821Z,2832.00
2019-03-29T08:45:15.808Z,2652.00
2019-03-29T08:46:15.722Z,2660.00
2019-03-29T08:47:15.666Z,2720.00
2019-03-29T08:48:15.624Z,2884.00
2019-03-29T08:49:17.049Z,3056.00
2019-03-29T08:50:15.547Z,3312.00
2019-03-29T08:51:15.462Z,3624.00
2019-03-29T08:52:15.410Z,3852.00
2019-03-29T08:53:15.363Z,4016.00
2019-03-29T08:54:15.351Z,4460.00
2019-03-29T08:55:17.456Z,5076.00
2019-03-29T08:56:15.209Z,5740.00
2019-03-29T08:57:15.159Z,6112.00
2019-03-29T08:58:15.106Z,5924.00
2019-03-29T08:59:17.519Z,5192.00
2019-03-29T09:00:16.033Z,4556.00
2019-03-29T09:01:15.002Z,4200.00
2019-03-29T09:02:14.898Z,4096.00
2019-03-29T09:03:14.850Z,3988.00
2019-03-29T09:04:14.802Z,3988.00
2019-03-29T09:05:14.749Z,4024.00
2019-03-29T09:06:14.728Z,4096.00
2019-03-29T09:07:14.648Z,4208.00
2019-03-29T09:08:14.593Z,4184.00
2019-03-29T09:09:14.543Z,4052.00
2019-03-29T09:10:14.490Z,4056.00
2019-03-29T09:11:14.480Z,4208.00
2019-03-29T09:12:15.066Z,4356.00
2019-03-29T09:13:14.340Z,3956.00
2019-03-29T09:14:14.288Z,4036.00
2019-03-29T09:15:14.236Z,3932.00
2019-03-29T09:16:14.229Z,4576.00
2019-03-29T09:17:14.133Z,4992.00
2019-03-29T09:18:14.083Z,4392.00
2019-03-29T09:19:14.032Z,4632.00
2019-03-29T09:20:13.988Z,4868.00
2019-03-29T09:21:13.962Z,5028.00
2019-03-29T09:22:13.881Z,4936.00
2019-03-29T09:23:13.833Z,4832.00
2019-03-29T09:24:21.682Z,4644.00
2019-03-29T09:25:13.731Z,5100.00
2019-03-29T09:26:13.677Z,4388.00
2019-03-29T09:27:13.663Z,4360.00
2019-03-29T09:28:13.575Z,4428.00
2019-03-29T09:29:13.527Z,4612.00
2019-03-29T09:30:13.472Z,4856.00
2019-03-29T09:31:13.427Z,5312.00
2019-03-29T09:32:13.413Z,5704.00
2019-03-29T09:33:13.318Z,5992.00
2019-03-29T09:34:13.269Z,6284.00
2019-03-29T09:35:13.220Z,6732.00
2019-03-29T09:36:13.169Z,8668.00
2019-03-29T09:37:13.151Z,6956.00
2019-03-29T09:38:13.068Z,9116.00
2019-03-29T09:39:13.021Z,7348.00
2019-03-29T09:40:14.017Z,7680.00
2019-03-29T09:41:12.957Z,8004.00
2019-03-29T09:42:12.870Z,7904.00
2019-03-29T09:43:12.821Z,7636.00
2019-03-29T09:44:12.770Z,8744.00
2019-03-29T09:45:12.720Z,9476.00
2019-03-29T09:46:12.707Z,9592.00
2019-03-29T09:47:12.629Z,8240.00
2019-03-29T09:48:12.575Z,7152.00
2019-03-29T09:49:12.535Z,7284.00
2019-03-29T09:50:12.481Z,7956.00
2019-03-29T09:51:12.460Z,6812.00
2019-03-29T09:52:12.387Z,6852.00
2019-03-29T09:53:12.338Z,7284.00
2019-03-29T09:54:12.316Z,6748.00
2019-03-29T09:55:12.236Z,7020.00
2019-03-29T09:56:12.187Z,7556.00
2019-03-29T09:57:15.598Z,8700.00
2019-03-29T09:58:12.090Z,7072.00
2019-03-29T09:59:12.095Z,9148.00
2019-03-29T10:00:20.858Z,7836.00
2019-03-29T10:01:11.975Z,7608.00
2019-03-29T10:02:11.901Z,7496.00
2019-03-29T10:03:11.851Z,7264.00
2019-03-29T10:04:11.836Z,7204.00
2019-03-29T10:05:11.759Z,9192.00
2019-03-29T10:06:15.039Z,8828.00
2019-03-29T10:07:11.662Z,8412.00
2019-03-29T10:08:11.648Z,7932.00
2019-03-29T10:09:11.568Z,7792.00
2019-03-29T10:10:11.523Z,7552.00
2019-03-29T10:11:11.517Z,7656.00
2019-03-29T10:12:11.426Z,7568.00
2019-03-29T10:13:11.395Z,7504.00
2019-03-29T10:14:11.331Z,7288.00
2019-03-29T10:15:11.285Z,7340.00
2019-03-29T10:16:11.280Z,7316.00
2019-03-29T10:17:11.189Z,7176.00
2019-03-29T10:18:11.143Z,6976.00
2019-03-29T10:19:11.099Z,7092.00
2019-03-29T10:20:11.060Z,6920.00
2019-03-29T10:21:11.036Z,5956.00
2019-03-29T10:22:10.957Z,6656.00
2019-03-29T10:23:10.941Z,6472.00
2019-03-29T10:24:10.863Z,6428.00
2019-03-29T10:25:19.046Z,6336.00
2019-03-29T10:26:10.774Z,6288.00
2019-03-29T10:27:10.873Z,6248.00
2019-03-29T10:28:10.681Z,6140.00
2019-03-29T10:29:10.635Z,6080.00
2019-03-29T10:30:10.589Z,5932.00
2019-03-29T10:31:10.543Z,5872.00
2019-03-29T10:32:10.536Z,5888.00
2019-03-29T10:33:10.455Z,5824.00
2019-03-29T10:34:10.411Z,5628.00
2019-03-29T10:35:10.362Z,5740.00
2019-03-29T10:36:10.358Z,5720.00
2019-03-29T10:37:10.278Z,5704.00
2019-03-29T10:38:10.230Z,5656.00
2019-03-29T10:39:10.185Z,5640.00
2019-03-29T10:40:10.142Z,5588.00
2019-03-29T10:41:10.139Z,5540.00
2019-03-29T10:42:10.054Z,5492.00
2019-03-29T10:43:10.023Z,5472.00
2019-03-29T10:44:09.966Z,5448.00
2019-03-29T10:45:09.951Z,5432.00
2019-03-29T10:46:09.878Z,5436.00
2019-03-29T10:47:09.835Z,5416.00
2019-03-29T10:48:09.790Z,5404.00
2019-03-29T10:49:09.778Z,5392.00
2019-03-29T10:50:09.704Z,5388.00
2019-03-29T10:51:09.692Z,5368.00
2019-03-29T10:52:09.663Z,5356.00
2019-03-29T10:53:09.575Z,5344.00
2019-03-29T10:54:09.539Z,5348.00
2019-03-29T10:55:09.480Z,5328.00
2019-03-29T10:56:09.477Z,5312.00
2019-03-29T10:57:09.399Z,5320.00
2019-03-29T10:58:09.830Z,5288.00
2019-03-29T10:59:09.305Z,5284.00
2019-03-29T11:00:09.260Z,5276.00
2019-03-29T11:01:09.256Z,5280.00
2019-03-29T11:02:09.170Z,5284.00
2019-03-29T11:03:09.133Z,5288.00
2019-03-29T11:04:09.080Z,5276.00
2019-03-29T11:05:09.037Z,5268.00
2019-03-29T11:06:09.034Z,5260.00
2019-03-29T11:07:08.952Z,5236.00
2019-03-29T11:08:11.625Z,5216.00
2019-03-29T11:09:08.864Z,5228.00
2019-03-29T11:10:08.817Z,5220.00
2019-03-29T11:11:08.802Z,5200.00
2019-03-29T11:12:08.752Z,5176.00
2019-03-29T11:13:13.283Z,5160.00
2019-03-29T11:14:08.639Z,5136.00
2019-03-29T11:15:08.604Z,5128.00
2019-03-29T11:16:08.548Z,5108.00
2019-03-29T11:17:08.540Z,5108.00
2019-03-29T11:18:08.458Z,5108.00
2019-03-29T11:19:08.451Z,5088.00
2019-03-29T11:20:08.372Z,5064.00
2019-03-29T11:21:08.332Z,5048.00
2019-03-29T11:22:08.287Z,5048.00
2019-03-29T11:23:08.242Z,5044.00
2019-03-29T11:24:09.369Z,5048.00
2019-03-29T11:25:08.154Z,5044.00
2019-03-29T11:26:08.111Z,5036.00
2019-03-29T11:27:08.095Z,5052.00
2019-03-29T11:28:08.107Z,5052.00
2019-03-29T11:29:08.008Z,5052.00
2019-03-29T11:30:07.930Z,5048.00
2019-03-29T11:31:07.890Z,5036.00
2019-03-29T11:32:07.885Z,5004.00
2019-03-29T11:33:07.800Z,4992.00
2019-03-29T11:34:07.771Z,4984.00
2019-03-29T11:35:07.711Z,4972.00
2019-03-29T11:36:07.668Z,4960.00
2019-03-29T11:37:07.659Z,4956.00
2019-03-29T11:38:07.582Z,4960.00
2019-03-29T11:39:07.541Z,4960.00
2019-03-29T11:40:07.532Z,4940.00
2019-03-29T11:41:07.455Z,4928.00
2019-03-29T11:42:07.409Z,4944.00
2019-03-29T11:43:07.432Z,4920.00
2019-03-29T11:44:07.343Z,4864.00
2019-03-29T11:45:07.287Z,4836.00
2019-03-29T11:46:07.237Z,4788.00
2019-03-29T11:47:07.193Z,4780.00
2019-03-29T11:48:09.396Z,4772.00
2019-03-29T11:49:07.105Z,4780.00
2019-03-29T11:50:07.097Z,4756.00
2019-03-29T11:51:18.560Z,4756.00
2019-03-29T11:52:06.974Z,4744.00
2019-03-29T11:53:06.934Z,4752.00
2019-03-29T11:54:06.885Z,4764.00
2019-03-29T11:55:06.875Z,4744.00
2019-03-29T11:56:06.800Z,4744.00
2019-03-29T11:57:06.757Z,4732.00
2019-03-29T11:58:06.713Z,4724.00
2019-03-29T11:59:06.669Z,4684.00
2019-03-29T12:00:06.657Z,4656.00
2019-03-29T12:01:06.582Z,4640.00
2019-03-29T12:02:06.539Z,4628.00
2019-03-29T12:03:09.038Z,4628.00
2019-03-29T12:04:06.485Z,4604.00
2019-03-29T12:05:06.410Z,4596.00
2019-03-29T12:06:06.401Z,4568.00
2019-03-29T12:07:06.322Z,4560.00
2019-03-29T12:08:06.284Z,4552.00
2019-03-29T12:09:06.237Z,4532.00
2019-03-29T12:10:06.199Z,4524.00
2019-03-29T12:11:06.180Z,4528.00
2019-03-29T12:12:06.109Z,4512.00
2019-03-29T12:13:06.066Z,4504.00
2019-03-29T12:14:06.099Z,4488.00
2019-03-29T12:15:05.978Z,4468.00
2019-03-29T12:16:05.964Z,4464.00
2019-03-29T12:17:05.925Z,4440.00
2019-03-29T12:18:05.843Z,4392.00
2019-03-29T12:19:05.804Z,4388.00
2019-03-29T12:20:05.757Z,4376.00
2019-03-29T12:21:05.718Z,4364.00
2019-03-29T12:22:05.709Z,4356.00
2019-03-29T12:23:05.629Z,4316.00
2019-03-29T12:24:05.581Z,4296.00
2019-03-29T12:25:05.541Z,4304.00
2019-03-29T12:26:05.497Z,4312.00
2019-03-29T12:27:05.490Z,4300.00
2019-03-29T12:28:05.413Z,4292.00
2019-03-29T12:29:05.363Z,4260.00
2019-03-29T12:30:05.324Z,4240.00
2019-03-29T12:31:05.278Z,4204.00
2019-03-29T12:32:05.271Z,4172.00
2019-03-29T12:33:05.190Z,4180.00